sensor_id;sensor_type;location;lat;lon;timestamp;P1;durP1;ratioP1;P2;durP2;ratioP2
11414;SDS011;5763;42.714;23.244;2023-03-14T00:00:48;11.85;;;9.70;;
11414;SDS011;5763;42.714;23.244;2023-03-14T00:03:15;14.55;;;9.82;;
11414;SDS011;5763;42.714;23.244;2023-03-14T00:05:41;14.55;;;9.95;;
11414;SDS011;5763;42.714;23.244;2023-03-14T00:08:08;14.35;;;9.48;;
11414;SDS011;5763;42.714;23.244;2023-03-14T00:10:35;12.88;;;9.48;;
11414;SDS011;5763;42.714;23.244;2023-03-14T00:13:04;13.82;;;9.90;;
11414;SDS011;5763;42.714;23.244;2023-03-14T00:15:32;11.85;;;9.48;;
11414;SDS011;5763;42.714;23.244;2023-03-14T00:17:59;13.60;;;9.60;;
11414;SDS011;5763;42.714;23.244;2023-03-14T00:20:26;13.60;;;10.13;;
11414;SDS011;5763;42.714;23.244;2023-03-14T00:22:53;15.05;;;9.77;;
11414;SDS011;5763;42.714;23.244;2023-03-14T00:25:20;12.75;;;9.38;;
11414;SDS011;5763;42.714;23.244;2023-03-14T00:27:46;12.10;;;8.38;;
11414;SDS011;5763;42.714;23.244;2023-03-14T00:30:15;13.95;;;9.25;;
11414;SDS011;5763;42.714;23.244;2023-03-14T00:32:42;11.90;;;8.73;;
11414;SDS011;5763;42.714;23.244;2023-03-14T00:35:09;11.70;;;9.13;;
11414;SDS011;5763;42.714;23.244;2023-03-14T00:37:36;13.25;;;9.10;;
11414;SDS011;5763;42.714;23.244;2023-03-14T00:40:03;12.13;;;9.48;;
11414;SDS011;5763;42.714;23.244;2023-03-14T00:42:31;15.75;;;9.43;;
11414;SDS011;5763;42.714;23.244;2023-03-14T00:44:58;11.40;;;8.32;;
11414;SDS011;5763;42.714;23.244;2023-03-14T00:47:26;11.02;;;8.73;;
11414;SDS011;5763;42.714;23.244;2023-03-14T00:49:53;11.02;;;8.82;;
11414;SDS011;5763;42.714;23.244;2023-03-14T00:52:20;12.13;;;8.85;;
11414;SDS011;5763;42.714;23.244;2023-03-14T00:54:46;12.20;;;8.73;;
11414;SDS011;5763;42.714;23.244;2023-03-14T00:57:13;13.27;;;8.15;;
11414;SDS011;5763;42.714;23.244;2023-03-14T00:59:40;14.50;;;8.95;;
11414;SDS011;5763;42.714;23.244;2023-03-14T01:02:07;10.57;;;8.02;;
11414;SDS011;5763;42.714;23.244;2023-03-14T01:04:35;13.07;;;8.27;;
11414;SDS011;5763;42.714;23.244;2023-03-14T01:07:02;9.85;;;8.15;;
11414;SDS011;5763;42.714;23.244;2023-03-14T01:09:29;11.77;;;8.55;;
11414;SDS011;5763;42.714;23.244;2023-03-14T01:11:56;13.60;;;8.50;;
11414;SDS011;5763;42.714;23.244;2023-03-14T01:14:23;15.07;;;8.45;;
11414;SDS011;5763;42.714;23.244;2023-03-14T01:16:49;10.60;;;7.40;;
11414;SDS011;5763;42.714;23.244;2023-03-14T01:19:16;11.13;;;8.50;;
11414;SDS011;5763;42.714;23.244;2023-03-14T01:21:44;11.70;;;8.43;;
11414;SDS011;5763;42.714;23.244;2023-03-14T01:24:11;12.32;;;8.00;;
11414;SDS011;5763;42.714;23.244;2023-03-14T01:26:38;10.35;;;8.25;;
11414;SDS011;5763;42.714;23.244;2023-03-14T01:29:04;10.57;;;8.73;;
11414;SDS011;5763;42.714;23.244;2023-03-14T01:31:31;10.48;;;8.38;;
11414;SDS011;5763;42.714;23.244;2023-03-14T01:33:58;11.60;;;8.57;;
11414;SDS011;5763;42.714;23.244;2023-03-14T01:36:25;10.70;;;8.88;;
11414;SDS011;5763;42.714;23.244;2023-03-14T01:38:53;13.52;;;8.00;;
11414;SDS011;5763;42.714;23.244;2023-03-14T01:41:20;13.00;;;9.20;;
11414;SDS011;5763;42.714;23.244;2023-03-14T01:43:50;12.10;;;8.48;;
11414;SDS011;5763;42.714;23.244;2023-03-14T01:46:21;12.65;;;8.50;;
11414;SDS011;5763;42.714;23.244;2023-03-14T01:48:54;10.95;;;8.63;;
11414;SDS011;5763;42.714;23.244;2023-03-14T01:51:25;12.90;;;8.73;;
11414;SDS011;5763;42.714;23.244;2023-03-14T01:53:59;13.40;;;9.13;;
11414;SDS011;5763;42.714;23.244;2023-03-14T01:56:30;11.10;;;8.80;;
11414;SDS011;5763;42.714;23.244;2023-03-14T01:58:57;11.90;;;8.63;;
11414;SDS011;5763;42.714;23.244;2023-03-14T02:01:27;12.75;;;8.52;;
11414;SDS011;5763;42.714;23.244;2023-03-14T02:03:55;11.38;;;8.40;;
11414;SDS011;5763;42.714;23.244;2023-03-14T02:06:26;11.60;;;8.55;;
11414;SDS011;5763;42.714;23.244;2023-03-14T02:08:59;11.15;;;8.43;;
11414;SDS011;5763;42.714;23.244;2023-03-14T02:11:27;11.45;;;7.93;;
11414;SDS011;5763;42.714;23.244;2023-03-14T02:13:55;12.48;;;8.40;;
11414;SDS011;5763;42.714;23.244;2023-03-14T02:16:24;11.38;;;8.18;;
11414;SDS011;5763;42.714;23.244;2023-03-14T02:18:51;11.82;;;7.93;;
11414;SDS011;5763;42.714;23.244;2023-03-14T02:21:19;13.23;;;8.18;;
11414;SDS011;5763;42.714;23.244;2023-03-14T02:23:51;11.93;;;7.85;;
11414;SDS011;5763;42.714;23.244;2023-03-14T02:26:27;14.02;;;8.38;;
11414;SDS011;5763;42.714;23.244;2023-03-14T02:28:59;12.70;;;8.48;;
11414;SDS011;5763;42.714;23.244;2023-03-14T02:31:26;11.02;;;7.80;;
11414;SDS011;5763;42.714;23.244;2023-03-14T02:33:53;12.23;;;8.30;;
11414;SDS011;5763;42.714;23.244;2023-03-14T02:36:20;10.93;;;8.60;;
11414;SDS011;5763;42.714;23.244;2023-03-14T02:38:50;11.50;;;7.88;;
11414;SDS011;5763;42.714;23.244;2023-03-14T02:41:19;10.70;;;7.63;;
11414;SDS011;5763;42.714;23.244;2023-03-14T02:43:46;12.32;;;8.00;;
11414;SDS011;5763;42.714;23.244;2023-03-14T02:46:15;11.88;;;8.68;;
11414;SDS011;5763;42.714;23.244;2023-03-14T02:48:45;12.90;;;8.35;;
11414;SDS011;5763;42.714;23.244;2023-03-14T02:51:14;12.45;;;8.60;;
11414;SDS011;5763;42.714;23.244;2023-03-14T02:53:41;12.50;;;8.85;;
11414;SDS011;5763;42.714;23.244;2023-03-14T02:56:08;15.40;;;9.50;;
11414;SDS011;5763;42.714;23.244;2023-03-14T02:58:35;12.32;;;9.10;;
11414;SDS011;5763;42.714;23.244;2023-03-14T03:01:03;18.08;;;9.70;;
11414;SDS011;5763;42.714;23.244;2023-03-14T03:03:32;13.05;;;8.75;;
11414;SDS011;5763;42.714;23.244;2023-03-14T03:05:59;12.10;;;9.10;;
11414;SDS011;5763;42.714;23.244;2023-03-14T03:08:26;11.80;;;8.77;;
11414;SDS011;5763;42.714;23.244;2023-03-14T03:10:54;13.98;;;9.82;;
11414;SDS011;5763;42.714;23.244;2023-03-14T03:13:23;11.82;;;8.88;;
11414;SDS011;5763;42.714;23.244;2023-03-14T03:15:50;11.30;;;8.82;;
11414;SDS011;5763;42.714;23.244;2023-03-14T03:18:16;13.20;;;9.38;;
11414;SDS011;5763;42.714;23.244;2023-03-14T03:20:44;12.82;;;9.15;;
11414;SDS011;5763;42.714;23.244;2023-03-14T03:23:11;11.13;;;8.85;;
11414;SDS011;5763;42.714;23.244;2023-03-14T03:25:38;11.93;;;8.63;;
11414;SDS011;5763;42.714;23.244;2023-03-14T03:28:05;11.65;;;8.85;;
11414;SDS011;5763;42.714;23.244;2023-03-14T03:30:33;13.40;;;9.43;;
11414;SDS011;5763;42.714;23.244;2023-03-14T03:33:03;15.32;;;9.20;;
11414;SDS011;5763;42.714;23.244;2023-03-14T03:35:30;12.20;;;8.38;;
11414;SDS011;5763;42.714;23.244;2023-03-14T03:37:58;10.68;;;8.52;;
11414;SDS011;5763;42.714;23.244;2023-03-14T03:40:24;11.63;;;8.35;;
11414;SDS011;5763;42.714;23.244;2023-03-14T03:42:51;11.30;;;8.30;;
11414;SDS011;5763;42.714;23.244;2023-03-14T03:45:18;12.38;;;8.65;;
11414;SDS011;5763;42.714;23.244;2023-03-14T03:47:45;11.18;;;8.27;;
11414;SDS011;5763;42.714;23.244;2023-03-14T03:50:11;10.80;;;8.55;;
11414;SDS011;5763;42.714;23.244;2023-03-14T03:52:38;10.45;;;8.52;;
11414;SDS011;5763;42.714;23.244;2023-03-14T03:55:07;11.68;;;8.90;;
11414;SDS011;5763;42.714;23.244;2023-03-14T03:57:34;10.60;;;7.95;;
11414;SDS011;5763;42.714;23.244;2023-03-14T04:00:01;12.70;;;8.50;;
11414;SDS011;5763;42.714;23.244;2023-03-14T04:02:29;11.55;;;8.07;;
11414;SDS011;5763;42.714;23.244;2023-03-14T04:04:55;11.10;;;8.02;;
11414;SDS011;5763;42.714;23.244;2023-03-14T04:07:22;12.38;;;8.15;;
11414;SDS011;5763;42.714;23.244;2023-03-14T04:09:49;11.32;;;8.20;;
11414;SDS011;5763;42.714;23.244;2023-03-14T04:12:17;11.98;;;8.30;;
11414;SDS011;5763;42.714;23.244;2023-03-14T04:14:44;10.05;;;7.93;;
11414;SDS011;5763;42.714;23.244;2023-03-14T04:17:11;10.55;;;8.57;;
11414;SDS011;5763;42.714;23.244;2023-03-14T04:19:38;10.70;;;8.38;;
11414;SDS011;5763;42.714;23.244;2023-03-14T04:22:05;13.05;;;7.68;;
11414;SDS011;5763;42.714;23.244;2023-03-14T04:24:32;10.43;;;7.60;;
11414;SDS011;5763;42.714;23.244;2023-03-14T04:26:59;10.57;;;7.80;;
11414;SDS011;5763;42.714;23.244;2023-03-14T04:29:27;13.18;;;7.50;;
11414;SDS011;5763;42.714;23.244;2023-03-14T04:31:54;12.77;;;7.95;;
11414;SDS011;5763;42.714;23.244;2023-03-14T04:34:20;11.93;;;7.22;;
11414;SDS011;5763;42.714;23.244;2023-03-14T04:36:47;13.02;;;7.90;;
11414;SDS011;5763;42.714;23.244;2023-03-14T04:39:14;11.40;;;8.10;;
11414;SDS011;5763;42.714;23.244;2023-03-14T04:41:41;12.95;;;9.05;;
11414;SDS011;5763;42.714;23.244;2023-03-14T04:44:08;12.98;;;8.13;;
11414;SDS011;5763;42.714;23.244;2023-03-14T04:46:37;9.70;;;7.70;;
11414;SDS011;5763;42.714;23.244;2023-03-14T04:49:04;13.15;;;8.18;;
11414;SDS011;5763;42.714;23.244;2023-03-14T04:51:31;10.73;;;7.93;;
11414;SDS011;5763;42.714;23.244;2023-03-14T04:53:57;11.43;;;8.02;;
11414;SDS011;5763;42.714;23.244;2023-03-14T04:56:24;11.68;;;8.30;;
11414;SDS011;5763;42.714;23.244;2023-03-14T04:58:51;10.95;;;8.32;;
11414;SDS011;5763;42.714;23.244;2023-03-14T05:01:18;12.30;;;7.68;;
11414;SDS011;5763;42.714;23.244;2023-03-14T05:03:46;13.00;;;7.97;;
11414;SDS011;5763;42.714;23.244;2023-03-14T05:06:13;11.98;;;7.97;;
11414;SDS011;5763;42.714;23.244;2023-03-14T05:08:40;13.05;;;8.10;;
11414;SDS011;5763;42.714;23.244;2023-03-14T05:11:06;11.00;;;7.68;;
11414;SDS011;5763;42.714;23.244;2023-03-14T05:13:36;10.88;;;8.10;;
11414;SDS011;5763;42.714;23.244;2023-03-14T05:16:04;10.32;;;7.30;;
11414;SDS011;5763;42.714;23.244;2023-03-14T05:18:31;12.00;;;7.95;;
11414;SDS011;5763;42.714;23.244;2023-03-14T05:21:00;12.95;;;8.00;;
11414;SDS011;5763;42.714;23.244;2023-03-14T05:23:27;16.35;;;7.95;;
11414;SDS011;5763;42.714;23.244;2023-03-14T05:25:54;11.82;;;8.00;;
11414;SDS011;5763;42.714;23.244;2023-03-14T05:28:20;12.77;;;7.50;;
11414;SDS011;5763;42.714;23.244;2023-03-14T05:30:47;11.18;;;6.95;;
11414;SDS011;5763;42.714;23.244;2023-03-14T05:33:14;12.57;;;8.00;;
11414;SDS011;5763;42.714;23.244;2023-03-14T05:35:41;11.52;;;7.63;;
11414;SDS011;5763;42.714;23.244;2023-03-14T05:38:09;10.25;;;7.07;;
11414;SDS011;5763;42.714;23.244;2023-03-14T05:40:36;11.77;;;7.40;;
11414;SDS011;5763;42.714;23.244;2023-03-14T05:43:03;13.15;;;7.25;;
11414;SDS011;5763;42.714;23.244;2023-03-14T05:45:33;8.98;;;6.95;;
11414;SDS011;5763;42.714;23.244;2023-03-14T05:48:00;10.85;;;6.72;;
11414;SDS011;5763;42.714;23.244;2023-03-14T05:50:27;10.68;;;6.75;;
11414;SDS011;5763;42.714;23.244;2023-03-14T05:52:54;8.43;;;6.75;;
11414;SDS011;5763;42.714;23.244;2023-03-14T05:55:22;9.20;;;6.35;;
11414;SDS011;5763;42.714;23.244;2023-03-14T05:57:49;9.60;;;6.18;;
11414;SDS011;5763;42.714;23.244;2023-03-14T06:00:16;7.50;;;5.55;;
11414;SDS011;5763;42.714;23.244;2023-03-14T06:02:43;10.02;;;6.18;;
11414;SDS011;5763;42.714;23.244;2023-03-14T06:05:10;7.80;;;5.78;;
11414;SDS011;5763;42.714;23.244;2023-03-14T06:07:37;10.52;;;6.07;;
11414;SDS011;5763;42.714;23.244;2023-03-14T06:10:04;8.52;;;5.85;;
11414;SDS011;5763;42.714;23.244;2023-03-14T06:12:33;8.82;;;5.60;;
11414;SDS011;5763;42.714;23.244;2023-03-14T06:15:00;7.47;;;5.70;;
11414;SDS011;5763;42.714;23.244;2023-03-14T06:17:27;7.28;;;6.22;;
11414;SDS011;5763;42.714;23.244;2023-03-14T06:19:54;9.43;;;6.90;;
11414;SDS011;5763;42.714;23.244;2023-03-14T06:22:21;9.15;;;6.10;;
11414;SDS011;5763;42.714;23.244;2023-03-14T06:24:47;11.45;;;6.88;;
11414;SDS011;5763;42.714;23.244;2023-03-14T06:27:14;10.90;;;7.00;;
11414;SDS011;5763;42.714;23.244;2023-03-14T06:29:43;8.32;;;6.88;;
11414;SDS011;5763;42.714;23.244;2023-03-14T06:32:09;10.98;;;8.07;;
11414;SDS011;5763;42.714;23.244;2023-03-14T06:34:36;12.45;;;8.40;;
11414;SDS011;5763;42.714;23.244;2023-03-14T06:37:03;10.35;;;8.25;;
11414;SDS011;5763;42.714;23.244;2023-03-14T06:39:30;10.50;;;8.85;;
11414;SDS011;5763;42.714;23.244;2023-03-14T06:41:57;14.10;;;9.30;;
11414;SDS011;5763;42.714;23.244;2023-03-14T06:44:24;12.30;;;8.90;;
11414;SDS011;5763;42.714;23.244;2023-03-14T06:46:52;13.13;;;9.45;;
11414;SDS011;5763;42.714;23.244;2023-03-14T06:49:19;10.68;;;9.18;;
11414;SDS011;5763;42.714;23.244;2023-03-14T06:51:46;16.25;;;10.27;;
11414;SDS011;5763;42.714;23.244;2023-03-14T06:54:13;15.52;;;9.68;;
11414;SDS011;5763;42.714;23.244;2023-03-14T06:56:40;13.90;;;9.40;;
11414;SDS011;5763;42.714;23.244;2023-03-14T06:59:07;15.77;;;10.57;;
11414;SDS011;5763;42.714;23.244;2023-03-14T07:01:34;19.92;;;11.10;;
11414;SDS011;5763;42.714;23.244;2023-03-14T07:04:02;19.35;;;10.85;;
11414;SDS011;5763;42.714;23.244;2023-03-14T07:06:29;17.88;;;11.27;;
11414;SDS011;5763;42.714;23.244;2023-03-14T07:08:56;15.45;;;11.25;;
11414;SDS011;5763;42.714;23.244;2023-03-14T07:11:24;16.63;;;11.30;;
11414;SDS011;5763;42.714;23.244;2023-03-14T07:13:50;17.02;;;11.77;;
11414;SDS011;5763;42.714;23.244;2023-03-14T07:16:17;16.08;;;11.77;;
11414;SDS011;5763;42.714;23.244;2023-03-14T07:18:44;18.40;;;10.25;;
11414;SDS011;5763;42.714;23.244;2023-03-14T07:21:13;15.73;;;9.85;;
11414;SDS011;5763;42.714;23.244;2023-03-14T07:23:40;15.60;;;10.15;;
11414;SDS011;5763;42.714;23.244;2023-03-14T07:26:06;15.35;;;10.15;;
11414;SDS011;5763;42.714;23.244;2023-03-14T07:28:33;19.55;;;11.07;;
11414;SDS011;5763;42.714;23.244;2023-03-14T07:31:00;12.75;;;9.88;;
11414;SDS011;5763;42.714;23.244;2023-03-14T07:33:26;13.55;;;10.23;;
11414;SDS011;5763;42.714;23.244;2023-03-14T07:35:53;17.48;;;10.75;;
11414;SDS011;5763;42.714;23.244;2023-03-14T07:38:21;15.02;;;10.98;;
11414;SDS011;5763;42.714;23.244;2023-03-14T07:40:48;14.43;;;10.52;;
11414;SDS011;5763;42.714;23.244;2023-03-14T07:43:15;14.63;;;11.10;;
11414;SDS011;5763;42.714;23.244;2023-03-14T07:45:45;16.02;;;11.30;;
11414;SDS011;5763;42.714;23.244;2023-03-14T07:48:12;15.45;;;11.38;;
11414;SDS011;5763;42.714;23.244;2023-03-14T07:50:39;15.32;;;11.20;;
11414;SDS011;5763;42.714;23.244;2023-03-14T07:53:06;19.85;;;11.52;;
11414;SDS011;5763;42.714;23.244;2023-03-14T07:55:34;16.08;;;11.70;;
11414;SDS011;5763;42.714;23.244;2023-03-14T07:58:01;17.40;;;12.15;;
11414;SDS011;5763;42.714;23.244;2023-03-14T08:00:28;21.52;;;12.27;;
11414;SDS011;5763;42.714;23.244;2023-03-14T08:02:54;16.35;;;12.32;;
11414;SDS011;5763;42.714;23.244;2023-03-14T08:05:21;14.00;;;12.02;;
11414;SDS011;5763;42.714;23.244;2023-03-14T08:07:48;16.40;;;12.45;;
11414;SDS011;5763;42.714;23.244;2023-03-14T08:10:15;15.65;;;11.38;;
11414;SDS011;5763;42.714;23.244;2023-03-14T08:12:48;17.52;;;12.57;;
11414;SDS011;5763;42.714;23.244;2023-03-14T08:15:15;17.10;;;11.93;;
11414;SDS011;5763;42.714;23.244;2023-03-14T08:17:42;16.35;;;11.57;;
11414;SDS011;5763;42.714;23.244;2023-03-14T08:20:10;16.58;;;12.88;;
11414;SDS011;5763;42.714;23.244;2023-03-14T08:22:38;18.60;;;12.77;;
11414;SDS011;5763;42.714;23.244;2023-03-14T08:25:05;16.73;;;11.85;;
11414;SDS011;5763;42.714;23.244;2023-03-14T08:27:32;15.15;;;12.13;;
11414;SDS011;5763;42.714;23.244;2023-03-14T08:30:00;16.60;;;12.55;;
11414;SDS011;5763;42.714;23.244;2023-03-14T08:32:27;23.63;;;13.23;;
11414;SDS011;5763;42.714;23.244;2023-03-14T08:34:54;17.83;;;13.20;;
11414;SDS011;5763;42.714;23.244;2023-03-14T08:37:21;19.40;;;13.65;;
11414;SDS011;5763;42.714;23.244;2023-03-14T08:39:49;18.50;;;13.68;;
11414;SDS011;5763;42.714;23.244;2023-03-14T08:42:16;18.75;;;13.20;;
11414;SDS011;5763;42.714;23.244;2023-03-14T08:44:43;16.88;;;12.27;;
11414;SDS011;5763;42.714;23.244;2023-03-14T08:47:11;15.65;;;12.18;;
11414;SDS011;5763;42.714;23.244;2023-03-14T08:49:38;15.40;;;11.13;;
11414;SDS011;5763;42.714;23.244;2023-03-14T08:52:05;16.60;;;12.35;;
11414;SDS011;5763;42.714;23.244;2023-03-14T08:54:31;14.43;;;11.43;;
11414;SDS011;5763;42.714;23.244;2023-03-14T08:56:58;18.85;;;12.88;;
11414;SDS011;5763;42.714;23.244;2023-03-14T08:59:25;20.58;;;12.50;;
11414;SDS011;5763;42.714;23.244;2023-03-14T09:01:52;14.63;;;11.68;;
11414;SDS011;5763;42.714;23.244;2023-03-14T09:04:20;17.88;;;11.57;;
11414;SDS011;5763;42.714;23.244;2023-03-14T09:06:47;14.27;;;10.82;;
11414;SDS011;5763;42.714;23.244;2023-03-14T09:09:14;16.15;;;11.32;;
11414;SDS011;5763;42.714;23.244;2023-03-14T09:11:42;14.05;;;10.13;;
11414;SDS011;5763;42.714;23.244;2023-03-14T09:14:09;15.07;;;9.82;;
11414;SDS011;5763;42.714;23.244;2023-03-14T09:16:36;10.90;;;8.75;;
11414;SDS011;5763;42.714;23.244;2023-03-14T09:19:03;8.02;;;6.95;;
11414;SDS011;5763;42.714;23.244;2023-03-14T09:21:32;8.20;;;6.70;;
11414;SDS011;5763;42.714;23.244;2023-03-14T09:23:58;11.98;;;7.00;;
11414;SDS011;5763;42.714;23.244;2023-03-14T09:26:25;12.38;;;7.28;;
11414;SDS011;5763;42.714;23.244;2023-03-14T09:28:52;11.10;;;7.30;;
11414;SDS011;5763;42.714;23.244;2023-03-14T09:31:19;9.00;;;6.45;;
11414;SDS011;5763;42.714;23.244;2023-03-14T09:33:45;8.85;;;6.68;;
11414;SDS011;5763;42.714;23.244;2023-03-14T09:36:12;8.88;;;5.90;;
11414;SDS011;5763;42.714;23.244;2023-03-14T09:38:40;6.55;;;5.60;;
11414;SDS011;5763;42.714;23.244;2023-03-14T09:41:12;7.82;;;5.00;;
11414;SDS011;5763;42.714;23.244;2023-03-14T09:43:42;7.07;;;4.75;;
11414;SDS011;5763;42.714;23.244;2023-03-14T09:46:12;5.85;;;5.03;;
11414;SDS011;5763;42.714;23.244;2023-03-14T09:48:41;8.45;;;5.35;;
11414;SDS011;5763;42.714;23.244;2023-03-14T09:51:11;5.80;;;4.68;;
11414;SDS011;5763;42.714;23.244;2023-03-14T09:53:42;8.25;;;5.00;;
11414;SDS011;5763;42.714;23.244;2023-03-14T09:56:11;10.40;;;5.60;;
11414;SDS011;5763;42.714;23.244;2023-03-14T09:58:40;8.63;;;5.78;;
11414;SDS011;5763;42.714;23.244;2023-03-14T10:01:09;11.82;;;5.60;;
11414;SDS011;5763;42.714;23.244;2023-03-14T10:03:40;6.88;;;5.00;;
11414;SDS011;5763;42.714;23.244;2023-03-14T10:06:11;5.65;;;4.80;;
11414;SDS011;5763;42.714;23.244;2023-03-14T10:08:39;7.88;;;5.43;;
11414;SDS011;5763;42.714;23.244;2023-03-14T10:11:11;6.93;;;4.68;;
11414;SDS011;5763;42.714;23.244;2023-03-14T10:13:47;7.25;;;5.13;;
11414;SDS011;5763;42.714;23.244;2023-03-14T10:16:29;11.55;;;5.03;;
11414;SDS011;5763;42.714;23.244;2023-03-14T10:19:01;7.32;;;4.65;;
11414;SDS011;5763;42.714;23.244;2023-03-14T10:21:30;6.68;;;4.63;;
11414;SDS011;5763;42.714;23.244;2023-03-14T10:24:09;7.70;;;4.70;;
11414;SDS011;5763;42.714;23.244;2023-03-14T10:26:45;6.88;;;5.10;;
11414;SDS011;5763;42.714;23.244;2023-03-14T10:29:15;7.68;;;5.25;;
11414;SDS011;5763;42.714;23.244;2023-03-14T10:31:46;7.82;;;5.38;;
11414;SDS011;5763;42.714;23.244;2023-03-14T10:34:20;7.80;;;6.10;;
11414;SDS011;5763;42.714;23.244;2023-03-14T10:36:51;6.25;;;5.50;;
11414;SDS011;5763;42.714;23.244;2023-03-14T10:39:24;6.72;;;5.68;;
11414;SDS011;5763;42.714;23.244;2023-03-14T10:41:54;8.45;;;4.57;;
11414;SDS011;5763;42.714;23.244;2023-03-14T10:44:28;10.15;;;5.25;;
11414;SDS011;5763;42.714;23.244;2023-03-14T10:46:56;6.28;;;4.80;;
11414;SDS011;5763;42.714;23.244;2023-03-14T10:49:27;6.20;;;4.60;;
11414;SDS011;5763;42.714;23.244;2023-03-14T10:51:55;5.05;;;4.53;;
11414;SDS011;5763;42.714;23.244;2023-03-14T10:54:29;6.00;;;5.15;;
11414;SDS011;5763;42.714;23.244;2023-03-14T10:56:56;7.38;;;4.65;;
11414;SDS011;5763;42.714;23.244;2023-03-14T10:59:24;7.28;;;4.43;;
11414;SDS011;5763;42.714;23.244;2023-03-14T11:01:57;5.32;;;4.22;;
11414;SDS011;5763;42.714;23.244;2023-03-14T11:04:31;5.55;;;4.78;;
11414;SDS011;5763;42.714;23.244;2023-03-14T11:07:14;6.28;;;4.47;;
11414;SDS011;5763;42.714;23.244;2023-03-14T11:09:48;7.65;;;4.47;;
11414;SDS011;5763;42.714;23.244;2023-03-14T11:12:27;5.53;;;4.82;;
11414;SDS011;5763;42.714;23.244;2023-03-14T11:15:05;5.35;;;4.57;;
11414;SDS011;5763;42.714;23.244;2023-03-14T11:17:41;6.35;;;5.22;;
11414;SDS011;5763;42.714;23.244;2023-03-14T11:20:22;7.97;;;6.05;;
11414;SDS011;5763;42.714;23.244;2023-03-14T11:22:58;7.40;;;5.63;;
11414;SDS011;5763;42.714;23.244;2023-03-14T11:25:31;9.68;;;6.05;;
11414;SDS011;5763;42.714;23.244;2023-03-14T11:28:07;5.95;;;5.35;;
11414;SDS011;5763;42.714;23.244;2023-03-14T11:30:42;7.20;;;5.28;;
11414;SDS011;5763;42.714;23.244;2023-03-14T11:33:16;6.72;;;5.30;;
11414;SDS011;5763;42.714;23.244;2023-03-14T11:35:49;8.15;;;5.03;;
11414;SDS011;5763;42.714;23.244;2023-03-14T11:38:29;8.05;;;5.32;;
11414;SDS011;5763;42.714;23.244;2023-03-14T11:41:02;6.88;;;5.07;;
11414;SDS011;5763;42.714;23.244;2023-03-14T11:43:35;7.20;;;5.57;;
11414;SDS011;5763;42.714;23.244;2023-03-14T11:46:09;8.45;;;4.90;;
11414;SDS011;5763;42.714;23.244;2023-03-14T11:48:41;5.45;;;4.70;;
11414;SDS011;5763;42.714;23.244;2023-03-14T11:51:15;6.75;;;4.45;;
11414;SDS011;5763;42.714;23.244;2023-03-14T11:53:54;6.25;;;4.25;;
11414;SDS011;5763;42.714;23.244;2023-03-14T11:56:31;5.80;;;3.80;;
11414;SDS011;5763;42.714;23.244;2023-03-14T11:59:03;5.50;;;4.05;;
11414;SDS011;5763;42.714;23.244;2023-03-14T12:01:40;6.03;;;3.80;;
11414;SDS011;5763;42.714;23.244;2023-03-14T12:04:19;6.55;;;3.60;;
11414;SDS011;5763;42.714;23.244;2023-03-14T12:06:52;5.80;;;3.58;;
11414;SDS011;5763;42.714;23.244;2023-03-14T12:09:20;5.35;;;3.83;;
11414;SDS011;5763;42.714;23.244;2023-03-14T12:11:51;6.68;;;4.00;;
11414;SDS011;5763;42.714;23.244;2023-03-14T12:14:22;5.97;;;3.50;;
11414;SDS011;5763;42.714;23.244;2023-03-14T12:16:53;4.78;;;3.50;;
11414;SDS011;5763;42.714;23.244;2023-03-14T12:22:23;6.30;;;4.28;;
11414;SDS011;5763;42.714;23.244;2023-03-14T12:24:53;4.22;;;3.80;;
11414;SDS011;5763;42.714;23.244;2023-03-14T12:27:45;4.78;;;3.75;;
11414;SDS011;5763;42.714;23.244;2023-03-14T12:30:31;4.45;;;3.60;;
11414;SDS011;5763;42.714;23.244;2023-03-14T12:36:09;4.82;;;3.58;;
11414;SDS011;5763;42.714;23.244;2023-03-14T12:41:40;5.82;;;3.17;;
11414;SDS011;5763;42.714;23.244;2023-03-14T12:50:37;3.88;;;3.47;;
11414;SDS011;5763;42.714;23.244;2023-03-14T12:56:28;4.68;;;3.08;;
11414;SDS011;5763;42.714;23.244;2023-03-14T12:59:14;3.67;;;3.38;;
11414;SDS011;5763;42.714;23.244;2023-03-14T13:01:58;3.65;;;3.00;;
11414;SDS011;5763;42.714;23.244;2023-03-14T13:04:28;5.13;;;2.95;;
11414;SDS011;5763;42.714;23.244;2023-03-14T13:06:59;5.13;;;2.75;;
11414;SDS011;5763;42.714;23.244;2023-03-14T13:09:45;4.55;;;2.67;;
11414;SDS011;5763;42.714;23.244;2023-03-14T13:12:22;3.47;;;2.25;;
11414;SDS011;5763;42.714;23.244;2023-03-14T13:14:57;4.28;;;3.10;;
11414;SDS011;5763;42.714;23.244;2023-03-14T13:17:27;4.43;;;3.03;;
11414;SDS011;5763;42.714;23.244;2023-03-14T13:19:58;3.17;;;2.63;;
11414;SDS011;5763;42.714;23.244;2023-03-14T13:22:31;3.75;;;2.42;;
11414;SDS011;5763;42.714;23.244;2023-03-14T13:25:04;4.82;;;2.60;;
11414;SDS011;5763;42.714;23.244;2023-03-14T13:27:34;3.47;;;2.20;;
11414;SDS011;5763;42.714;23.244;2023-03-14T13:30:05;2.85;;;2.20;;
11414;SDS011;5763;42.714;23.244;2023-03-14T13:32:42;3.78;;;2.30;;
11414;SDS011;5763;42.714;23.244;2023-03-14T13:35:14;3.00;;;2.45;;
11414;SDS011;5763;42.714;23.244;2023-03-14T13:37:46;2.72;;;2.20;;
11414;SDS011;5763;42.714;23.244;2023-03-14T13:40:21;3.28;;;2.58;;
11414;SDS011;5763;42.714;23.244;2023-03-14T13:42:59;4.78;;;2.42;;
11414;SDS011;5763;42.714;23.244;2023-03-14T13:45:30;3.08;;;2.28;;
11414;SDS011;5763;42.714;23.244;2023-03-14T13:47:59;3.85;;;2.25;;
11414;SDS011;5763;42.714;23.244;2023-03-14T13:50:25;3.42;;;2.30;;
11414;SDS011;5763;42.714;23.244;2023-03-14T13:52:56;3.45;;;1.90;;
11414;SDS011;5763;42.714;23.244;2023-03-14T13:55:23;2.10;;;1.90;;
11414;SDS011;5763;42.714;23.244;2023-03-14T13:57:50;2.90;;;2.03;;
11414;SDS011;5763;42.714;23.244;2023-03-14T14:00:21;4.32;;;2.03;;
11414;SDS011;5763;42.714;23.244;2023-03-14T14:02:52;2.95;;;1.90;;
11414;SDS011;5763;42.714;23.244;2023-03-14T14:05:22;2.97;;;1.80;;
11414;SDS011;5763;42.714;23.244;2023-03-14T14:07:51;2.70;;;2.08;;
11414;SDS011;5763;42.714;23.244;2023-03-14T14:10:18;3.03;;;1.58;;
11414;SDS011;5763;42.714;23.244;2023-03-14T14:12:48;2.33;;;1.65;;
11414;SDS011;5763;42.714;23.244;2023-03-14T14:15:19;4.70;;;1.67;;
11414;SDS011;5763;42.714;23.244;2023-03-14T14:17:49;4.30;;;1.92;;
11414;SDS011;5763;42.714;23.244;2023-03-14T14:20:22;3.10;;;1.70;;
11414;SDS011;5763;42.714;23.244;2023-03-14T14:22:57;2.00;;;1.70;;
11414;SDS011;5763;42.714;23.244;2023-03-14T14:25:25;2.97;;;1.83;;
11414;SDS011;5763;42.714;23.244;2023-03-14T14:27:52;2.13;;;1.70;;
11414;SDS011;5763;42.714;23.244;2023-03-14T14:30:26;3.20;;;1.63;;
11414;SDS011;5763;42.714;23.244;2023-03-14T14:33:09;2.25;;;1.90;;
11414;SDS011;5763;42.714;23.244;2023-03-14T14:35:41;3.22;;;1.77;;
11414;SDS011;5763;42.714;23.244;2023-03-14T14:38:11;2.92;;;2.10;;
11414;SDS011;5763;42.714;23.244;2023-03-14T14:40:45;5.78;;;2.50;;
11414;SDS011;5763;42.714;23.244;2023-03-14T14:43:15;2.95;;;2.55;;
11414;SDS011;5763;42.714;23.244;2023-03-14T14:45:44;4.68;;;2.88;;
11414;SDS011;5763;42.714;23.244;2023-03-14T14:48:13;4.53;;;2.40;;
11414;SDS011;5763;42.714;23.244;2023-03-14T14:50:50;2.65;;;2.08;;
11414;SDS011;5763;42.714;23.244;2023-03-14T14:53:23;2.55;;;2.00;;
11414;SDS011;5763;42.714;23.244;2023-03-14T14:55:54;4.15;;;2.15;;
11414;SDS011;5763;42.714;23.244;2023-03-14T14:58:23;2.85;;;1.90;;
11414;SDS011;5763;42.714;23.244;2023-03-14T15:00:53;4.45;;;2.08;;
11414;SDS011;5763;42.714;23.244;2023-03-14T15:03:24;3.22;;;2.28;;
11414;SDS011;5763;42.714;23.244;2023-03-14T15:05:56;3.92;;;2.10;;
11414;SDS011;5763;42.714;23.244;2023-03-14T15:08:24;2.17;;;1.60;;